Portada
METAR-TAF:

METAR-TAF

Aeroports :

Roi Et, Tailàndia

latitud: 16-07-00N, longitud: 103-46-26E, altitud: 138 m

Observació

L'informe es va fer fa 1 hora i 17 minuts, a les 07:00 UTC
Vent 3 kt amb direcció variable
Temperatura 34°C
Humitat 50%
Pressió 1007 hPa
Visibilitat 10 km o més
Núvols disperses a una alçada de 3000 ft

METAR: VTUV 230700Z VRB03KT 9999 SCT030 34/22 Q1007 NOSIG

Hora: 15:17 (08:17 UTC)

Pronòstic

L'informe es va fer fa 3 hores i 17 minuts, a les 05:00 UTC
Pronòstic vàlid del 23 a les 06 UTC al 24 a les 06 UTC
Vent 5 kt del Sud-Oest
Visibilitat 10 km o més
Escasses núvols a una alçada de 3000 ft
Evolucionant progressivament
l' 23 a les 21 UTC al 23 a les 23 UTC
Visibilitat: 5000 m
boirina
Evolucionant progressivament
l' 24 a les 01 UTC al 24 a les 03 UTC
Visibilitat 10 km o més

TAF: VTUV 230500Z 2306/2406 22005KT 9999 FEW030 BECMG 2321/2323 5000 BR BECMG 2401/2403 9999 NSW

Observacions i pronòstics meteorològics de més de 4000 aeroports (METAR i TAF).

Les estacions disponibles són els punts grocs i vermells al mapa.

Posi el ratolí al punt desitjat per veure el nom de l'estació.

Feu clic per veure les observacions i els pronòstics meteorològics.

Per canviar el mapa: feu clic els botons verds amb una creu de color negre per apropar; al botó verd amb un guió per allunyar la imatge; o en les fletxes verdes per a mapes adjacents.


METAR-TAF: